Time;durP1;ratioP1;P1;durP2;ratioP2;P2;SDS_P1;SDS_P2;PMS_P1;PMS_P2;Temp;Humidity;BMP_temperature;BMP_pressure;BME280_temperature;BME280_humidity;BME280_pressure;Samples;Min_cycle;Max_cycle;Signal;HPM_P1;HPM_P2
2023/05/16 00:00:42;;;;;;;25.88;17.80;;;435.40;2355.20;;;;;;5099630;28;20100;-81
2023/05/16 00:03:09;;;;;;;26.88;18.02;;;435.30;2355.20;;;;;;5101530;28;20026;-82
2023/05/16 00:05:35;;;;;;;24.60;17.38;;;435.30;2355.20;;;;;;5099886;28;20024;-81
2023/05/16 00:08:01;;;;;;;27.27;17.00;;;435.50;2355.20;;;;;;5104181;28;20034;-82
2023/05/16 00:10:27;;;;;;;26.90;18.45;;;435.40;2355.20;;;;;;5103248;28;20114;-83
2023/05/16 00:12:53;;;;;;;27.33;17.80;;;435.20;2355.20;;;;;;5102265;28;20049;-81
2023/05/16 00:15:19;;;;;;;26.80;18.42;;;435.30;2355.20;;;;;;5104327;28;20119;-83
2023/05/16 00:17:45;;;;;;;27.25;17.98;;;435.30;2355.20;;;;;;5104365;28;20062;-81
2023/05/16 00:20:13;;;;;;;26.48;18.00;;;410.50;2355.20;;;;;;5104361;28;20079;-84
2023/05/16 00:22:39;;;;;;;25.08;17.55;;;435.30;2355.20;;;;;;5105099;28;20019;-82
2023/05/16 00:25:06;;;;;;;29.98;17.55;;;460.80;2380.80;;;;;;5088030;28;20024;-84
2023/05/16 00:27:34;;;;;;;29.95;18.35;;;435.50;2355.20;;;;;;5084941;28;20601;-82
2023/05/16 00:30:04;;;;;;;31.85;19.02;;;435.50;2355.20;;;;;;5097976;28;20554;-84
2023/05/16 00:32:30;;;;;;;36.45;20.45;;;435.50;2355.20;;;;;;5105127;28;20049;-83
2023/05/16 00:34:56;;;;;;;26.80;19.20;;;435.40;2355.20;;;;;;5103356;28;20055;-82
2023/05/16 00:37:22;;;;;;;27.70;18.63;;;435.40;2355.20;;;;;;5105028;28;20036;-80
2023/05/16 00:39:48;;;;;;;28.00;18.75;;;435.30;2355.20;;;;;;5085676;28;20064;-83
2023/05/16 00:42:14;;;;;;;30.20;19.80;;;435.40;2355.20;;;;;;5083690;28;20142;-81
2023/05/16 00:44:40;;;;;;;30.50;20.77;;;435.50;2355.20;;;;;;5082792;28;20027;-82
2023/05/16 00:47:07;;;;;;;22.95;17.10;;;435.40;2355.20;;;;;;5084177;28;20035;-82
2023/05/16 00:49:33;;;;;;;20.85;17.13;;;435.50;2355.20;;;;;;5083060;28;20106;-81
2023/05/16 00:51:59;;;;;;;22.05;16.00;;;435.50;2355.20;;;;;;5084671;28;20028;-81
2023/05/16 00:54:28;;;;;;;17.77;14.48;;;435.50;2355.20;;;;;;5084796;28;20028;-81
2023/05/16 00:56:55;;;;;;;20.50;14.77;;;435.50;2355.20;;;;;;5105422;28;20490;-83
2023/05/16 00:59:22;;;;;;;21.15;14.55;;;435.40;2355.20;;;;;;5101515;28;20457;-81
2023/05/16 01:01:49;;;;;;;21.83;14.80;;;435.60;2355.20;;;;;;5080502;28;20069;-82
2023/05/16 01:04:16;;;;;;;16.52;13.57;;;435.60;2355.20;;;;;;5084301;28;20025;-81
2023/05/16 01:06:43;;;;;;;24.30;14.98;;;435.90;2355.20;;;;;;5084159;28;20051;-80
2023/05/16 01:09:11;;;;;;;21.88;14.82;;;435.60;2355.20;;;;;;5084138;28;20020;-80
2023/05/16 01:11:52;;;;;;;21.23;14.85;;;435.70;2355.20;;;;;;5083606;28;20048;-82
2023/05/16 01:14:24;;;;;;;17.38;14.05;;;435.70;2355.20;;;;;;5077785;28;20030;-81
2023/05/16 01:17:18;;;;;;;22.95;14.73;;;435.70;2355.20;;;;;;5083409;28;20032;-83
2023/05/16 01:19:47;;;;;;;20.00;16.08;;;435.70;2355.20;;;;;;5082181;28;20020;-82
2023/05/16 01:22:50;;;;;;;23.05;16.75;;;435.60;2355.20;;;;;;5083113;28;20020;-81
2023/05/16 01:25:35;;;;;;;;;;;435.60;2355.20;;;;;;5080039;28;20035;-82
2023/05/16 01:28:02;;;;;;;16.08;14.00;;;435.50;2355.20;;;;;;5082580;28;19904;-83
2023/05/16 01:30:34;;;;;;;18.50;14.27;;;435.50;2355.20;;;;;;5079244;28;20482;-81
2023/05/16 01:33:00;;;;;;;18.67;15.20;;;435.60;2355.20;;;;;;5071220;28;20020;-82
2023/05/16 01:35:26;;;;;;;23.13;15.30;;;435.60;2355.20;;;;;;5076756;28;20032;-84
2023/05/16 01:38:01;;;;;;;22.10;14.90;;;435.70;2355.20;;;;;;5082114;28;20078;-80
2023/05/16 01:40:27;;;;;;;22.30;14.80;;;435.70;2355.20;;;;;;5104029;28;20019;-80
2023/05/16 01:42:55;;;;;;;19.67;14.00;;;435.50;2355.20;;;;;;5102761;28;20022;-84
2023/05/16 01:45:28;;;;;;;21.05;13.63;;;435.50;2355.20;;;;;;5104003;28;20027;-83
2023/05/16 01:48:12;;;;;;;23.73;15.02;;;435.50;2355.20;;;;;;5102722;28;20024;-82
2023/05/16 01:50:46;;;;;;;18.70;15.40;;;435.50;2355.20;;;;;;5103776;28;20034;-83
2023/05/16 01:53:17;;;;;;;18.55;14.50;;;435.40;2355.20;;;;;;5098894;28;20024;-84
2023/05/16 01:55:50;;;;;;;21.15;15.30;;;435.40;2355.20;;;;;;5099914;28;20024;-81
2023/05/16 01:58:20;;;;;;;20.95;16.20;;;435.50;2355.20;;;;;;5101693;28;20447;-83
2023/05/16 02:00:46;;;;;;;20.60;15.25;;;435.50;2355.20;;;;;;5102190;28;20121;-81
2023/05/16 02:03:12;;;;;;;20.08;16.27;;;435.40;2355.20;;;;;;5101831;28;20467;-80
2023/05/16 02:05:37;;;;;;;18.83;16.40;;;435.30;2355.20;;;;;;5102878;28;20024;-82
2023/05/16 02:08:04;;;;;;;21.13;15.27;;;435.30;2355.20;;;;;;5103433;28;20034;-81
2023/05/16 02:10:30;;;;;;;21.08;15.60;;;410.50;2355.20;;;;;;5103388;28;20080;-81
2023/05/16 02:12:56;;;;;;;21.67;16.02;;;410.50;2355.20;;;;;;5103331;28;20019;-80
2023/05/16 02:15:22;;;;;;;19.70;14.98;;;435.20;2355.20;;;;;;5103296;28;20459;-81
2023/05/16 02:17:48;;;;;;;22.05;16.80;;;435.20;2355.20;;;;;;5102010;28;20028;-84
2023/05/16 02:20:14;;;;;;;20.45;14.88;;;435.20;2355.20;;;;;;5099711;28;20028;-80
2023/05/16 02:22:42;;;;;;;19.80;15.27;;;435.20;2355.20;;;;;;5099508;28;20120;-82
2023/05/16 02:25:09;;;;;;;23.88;15.90;;;435.20;2355.20;;;;;;5102803;28;20023;-82
2023/05/16 02:27:35;;;;;;;22.88;15.68;;;435.30;2355.20;;;;;;5102794;28;20040;-81
2023/05/16 02:30:01;;;;;;;21.40;15.70;;;435.30;2355.20;;;;;;5101296;28;20028;-80
2023/05/16 02:32:27;;;;;;;25.20;16.75;;;435.30;2355.20;;;;;;5103183;28;20467;-81
2023/05/16 02:34:52;;;;;;;20.88;15.95;;;435.30;2355.20;;;;;;5102259;28;20024;-81
2023/05/16 02:37:18;;;;;;;27.25;17.23;;;435.20;2355.20;;;;;;5102407;28;20055;-82
2023/05/16 02:39:44;;;;;;;26.38;16.98;;;435.20;2355.20;;;;;;5101358;28;20082;-80
2023/05/16 02:42:10;;;;;;;24.83;17.88;;;435.30;2355.20;;;;;;5103316;28;20028;-81
2023/05/16 02:44:36;;;;;;;24.58;16.45;;;435.20;2355.20;;;;;;5091718;28;20031;-84
2023/05/16 02:47:02;;;;;;;24.90;17.73;;;410.50;2355.20;;;;;;5082959;28;20032;-81
2023/05/16 02:49:27;;;;;;;22.15;16.50;;;435.20;2355.20;;;;;;5088576;28;20056;-80
2023/05/16 02:51:53;;;;;;;24.70;16.48;;;435.20;2355.20;;;;;;5103605;28;20485;-82
2023/05/16 02:54:19;;;;;;;22.88;17.17;;;435.20;2355.20;;;;;;5100796;28;20053;-80
2023/05/16 02:56:45;;;;;;;26.20;16.58;;;410.50;2355.20;;;;;;5102716;28;20055;-81
2023/05/16 02:59:12;;;;;;;24.83;17.17;;;410.50;2355.20;;;;;;5100735;28;20051;-81
2023/05/16 03:01:38;;;;;;;23.80;16.23;;;410.50;2355.20;;;;;;5101283;28;20020;-80
2023/05/16 03:04:03;;;;;;;19.50;15.38;;;410.50;2355.20;;;;;;5101544;28;20020;-82
2023/05/16 03:06:30;;;;;;;21.20;17.02;;;410.50;2355.20;;;;;;5101543;28;20047;-81
2023/05/16 03:08:56;;;;;;;25.08;16.17;;;410.50;2355.20;;;;;;5102241;28;20031;-82
2023/05/16 03:11:24;;;;;;;22.27;17.90;;;410.50;2355.20;;;;;;5100779;28;20025;-82
2023/05/16 03:13:50;;;;;;;19.48;16.60;;;410.50;2355.20;;;;;;5102369;28;20088;-82
2023/05/16 03:16:16;;;;;;;20.73;16.08;;;410.50;2355.20;;;;;;5100372;28;20047;-80
2023/05/16 03:18:42;;;;;;;24.40;16.13;;;410.40;2355.20;;;;;;5103304;28;20133;-83
2023/05/16 03:21:08;;;;;;;20.35;16.85;;;410.40;2355.20;;;;;;5101372;28;20092;-84
2023/05/16 03:23:34;;;;;;;21.30;16.20;;;410.40;2355.20;;;;;;5103919;28;20015;-83
2023/05/16 03:26:00;;;;;;;21.92;17.35;;;410.30;2355.20;;;;;;5102383;28;20020;-81
2023/05/16 03:28:26;;;;;;;24.77;17.15;;;410.40;2355.20;;;;;;5102005;28;20028;-81
2023/05/16 03:30:52;;;;;;;24.73;17.73;;;410.50;2355.20;;;;;;5103018;28;20038;-82
2023/05/16 03:33:18;;;;;;;28.67;17.73;;;410.40;2355.20;;;;;;5104325;28;20463;-85
2023/05/16 03:35:44;;;;;;;21.02;16.58;;;410.40;2355.20;;;;;;5104877;28;20024;-83
2023/05/16 03:38:11;;;;;;;26.88;17.35;;;410.30;2355.20;;;;;;5097502;28;20052;-86
2023/05/16 03:40:37;;;;;;;22.90;16.95;;;435.80;2355.20;;;;;;5108351;28;20020;-85
2023/05/16 03:43:03;;;;;;;19.05;16.88;;;410.50;2355.20;;;;;;5112536;28;20028;-87
2023/05/16 03:45:30;;;;;;;24.23;16.63;;;410.50;2355.20;;;;;;5112098;28;20019;-87
2023/05/16 03:47:56;;;;;;;23.75;17.33;;;410.50;2355.20;;;;;;5111479;28;20034;-86
2023/05/16 03:50:22;;;;;;;25.15;17.73;;;410.50;2355.20;;;;;;5112257;28;20047;-85
2023/05/16 03:52:48;;;;;;;27.50;20.52;;;410.50;2355.20;;;;;;5111752;28;20023;-87
2023/05/16 03:55:14;;;;;;;27.85;19.67;;;410.30;2355.20;;;;;;5103572;28;20050;-86
2023/05/16 03:57:42;;;;;;;24.55;18.92;;;410.50;2355.20;;;;;;5090776;28;20036;-87
2023/05/16 04:00:10;;;;;;;28.85;17.73;;;410.10;2355.20;;;;;;5101923;28;20028;-88
2023/05/16 04:02:35;;;;;;;30.33;22.05;;;410.40;2355.20;;;;;;5110821;28;20463;-84
2023/05/16 04:05:02;;;;;;;26.33;20.58;;;410.40;2355.20;;;;;;5108685;28;20029;-85
2023/05/16 04:07:27;;;;;;;41.92;28.85;;;410.40;2355.20;;;;;;5094579;28;20032;-86
2023/05/16 04:09:55;;;;;;;41.88;32.28;;;410.40;2355.20;;;;;;5091154;28;20016;-86
2023/05/16 04:12:21;;;;;;;33.60;27.30;;;410.40;2355.20;;;;;;5090381;28;20118;-87
2023/05/16 04:14:48;;;;;;;27.98;23.77;;;410.50;2355.20;;;;;;5105043;28;20024;-87
2023/05/16 04:17:13;;;;;;;35.15;27.02;;;410.40;2355.20;;;;;;5110962;28;20032;-87
2023/05/16 04:19:39;;;;;;;37.97;30.65;;;410.50;2355.20;;;;;;5110746;28;20122;-85
2023/05/16 04:22:06;;;;;;;35.60;30.00;;;435.80;2355.20;;;;;;5111233;28;20026;-87
2023/05/16 04:24:32;;;;;;;32.97;28.52;;;410.50;2355.20;;;;;;5110160;28;20020;-86
2023/05/16 04:27:00;;;;;;;35.88;28.25;;;410.40;2355.20;;;;;;5110893;28;20027;-84
2023/05/16 04:29:26;;;;;;;31.70;26.27;;;410.40;2355.20;;;;;;5110183;28;20027;-85
2023/05/16 04:31:51;;;;;;;28.23;23.10;;;410.50;2355.20;;;;;;5100014;28;20515;-85
2023/05/16 04:34:17;;;;;;;31.40;23.17;;;410.50;2355.20;;;;;;5090119;28;20024;-84
2023/05/16 04:36:44;;;;;;;27.10;20.70;;;410.50;2355.20;;;;;;5096367;28;20023;-84
2023/05/16 04:39:10;;;;;;;25.15;19.60;;;410.50;2355.20;;;;;;5109837;28;20043;-85
2023/05/16 04:41:36;;;;;;;28.05;19.20;;;410.50;2355.20;;;;;;5109041;28;20030;-85
2023/05/16 04:44:03;;;;;;;26.50;17.88;;;410.50;2355.20;;;;;;5110474;28;20028;-88
2023/05/16 04:46:29;;;;;;;25.05;18.77;;;410.50;2355.20;;;;;;5113240;28;20012;-86
2023/05/16 04:48:56;;;;;;;23.77;17.52;;;410.20;2355.20;;;;;;5112575;28;20077;-87
2023/05/16 04:51:22;;;;;;;24.88;17.65;;;410.30;2150.40;;;;;;5112431;28;20049;-87
2023/05/16 04:53:48;;;;;;;22.98;16.70;;;410.50;2355.20;;;;;;5111809;28;20051;-86
2023/05/16 04:56:14;;;;;;;23.80;17.33;;;410.40;2355.20;;;;;;5112347;28;20414;-87
2023/05/16 04:58:40;;;;;;;23.02;15.95;;;410.50;2355.20;;;;;;5111569;28;20026;-86
2023/05/16 05:01:06;;;;;;;21.08;16.50;;;410.50;2355.20;;;;;;5111536;28;20020;-85
2023/05/16 05:03:33;;;;;;;21.08;15.73;;;410.50;2355.20;;;;;;5111486;28;20036;-87
2023/05/16 05:05:59;;;;;;;30.42;21.73;;;410.40;2355.20;;;;;;5109452;28;20020;-86
2023/05/16 05:08:25;;;;;;;27.48;17.80;;;410.40;2355.20;;;;;;5112051;28;20375;-87
2023/05/16 05:10:51;;;;;;;22.40;14.90;;;410.40;2355.20;;;;;;5111921;28;20087;-87
2023/05/16 05:13:18;;;;;;;21.15;15.88;;;410.20;2355.20;;;;;;5096133;28;20055;-87
2023/05/16 05:15:43;;;;;;;19.05;14.20;;;410.50;2355.20;;;;;;5109207;28;20020;-87
2023/05/16 05:18:10;;;;;;;21.40;16.80;;;410.50;2355.20;;;;;;5093224;28;20025;-86
2023/05/16 05:20:36;;;;;;;22.90;17.80;;;410.50;2355.20;;;;;;5089736;28;20028;-87
2023/05/16 05:23:02;;;;;;;20.52;15.25;;;435.20;2355.20;;;;;;5112450;28;20020;-87
2023/05/16 05:25:28;;;;;;;19.17;15.60;;;435.20;2355.20;;;;;;5101013;28;20083;-86
2023/05/16 05:27:54;;;;;;;22.40;17.42;;;435.20;2355.20;;;;;;5117586;28;20490;-87
2023/05/16 05:30:20;;;;;;;25.58;18.55;;;435.50;2355.20;;;;;;5090184;28;20091;-86
2023/05/16 05:32:46;;;;;;;25.27;19.77;;;384.60;2329.60;;;;;;5101794;28;20015;-87
2023/05/16 05:35:12;;;;;;;27.20;20.70;;;435.30;2355.20;;;;;;5110567;28;20087;-87
2023/05/16 05:37:38;;;;;;;26.55;20.90;;;435.30;2355.20;;;;;;5106185;28;20042;-87
2023/05/16 05:40:05;;;;;;;28.33;22.60;;;435.50;2355.20;;;;;;5109219;28;20409;-87
2023/05/16 05:42:31;;;;;;;29.88;22.70;;;435.50;2355.20;;;;;;5092754;28;20071;-85
2023/05/16 05:44:57;;;;;;;32.72;25.75;;;435.40;2355.20;;;;;;5066915;28;20423;-85
2023/05/16 05:47:23;;;;;;;35.33;27.17;;;435.30;2355.20;;;;;;5073070;28;20063;-85
2023/05/16 05:49:49;;;;;;;46.15;41.47;;;435.30;2355.20;;;;;;5083390;28;20028;-83
2023/05/16 05:52:15;;;;;;;63.95;57.40;;;435.30;2355.20;;;;;;5083067;28;20043;-84
2023/05/16 05:54:41;;;;;;;67.38;60.08;;;435.30;2150.40;;;;;;5082738;28;20028;-85
2023/05/16 05:57:07;;;;;;;58.33;52.13;;;435.40;2355.20;;;;;;5100043;28;20090;-84
2023/05/16 05:59:33;;;;;;;49.97;43.60;;;435.60;2355.20;;;;;;5100397;28;20035;-85
2023/05/16 06:01:59;;;;;;;53.75;47.58;;;435.40;2355.20;;;;;;5099400;28;20096;-86
2023/05/16 06:04:25;;;;;;;55.72;46.45;;;435.50;2355.20;;;;;;5100260;28;20028;-83
2023/05/16 06:06:51;;;;;;;48.90;43.60;;;435.50;2355.20;;;;;;5085907;28;20032;-86
2023/05/16 06:09:17;;;;;;;49.88;42.35;;;435.50;2355.20;;;;;;5066551;28;20059;-85
2023/05/16 06:11:44;;;;;;;46.40;41.38;;;435.50;2355.20;;;;;;5080146;28;20503;-87
2023/05/16 06:14:10;;;;;;;48.65;39.75;;;435.50;2355.20;;;;;;5085927;28;20133;-85
2023/05/16 06:16:38;;;;;;;46.05;41.22;;;435.60;2355.20;;;;;;5093986;28;20118;-84
2023/05/16 06:19:04;;;;;;;54.67;43.33;;;435.60;2355.20;;;;;;5105410;28;20487;-86
2023/05/16 06:21:32;;;;;;;52.75;42.97;;;436.10;2355.20;;;;;;5104973;28;20020;-87
2023/05/16 06:23:58;;;;;;;54.60;42.05;;;435.70;2022.40;;;;;;5102301;28;20027;-81
2023/05/16 06:26:23;;;;;;;52.15;40.45;;;435.70;2022.40;;;;;;5100600;28;20023;-85
2023/05/16 06:28:49;;;;;;;47.58;37.30;;;435.70;2355.20;;;;;;5101500;28;20234;-81
2023/05/16 06:31:15;;;;;;;45.08;37.05;;;435.70;2355.20;;;;;;5100180;28;20024;-84
2023/05/16 06:33:41;;;;;;;45.88;40.85;;;435.60;2355.20;;;;;;5102228;28;20032;-84
2023/05/16 06:36:07;;;;;;;49.22;38.60;;;435.70;2355.20;;;;;;5100727;28;20035;-81
2023/05/16 06:38:33;;;;;;;53.28;39.28;;;435.60;2355.20;;;;;;5101245;28;20131;-83
2023/05/16 06:40:58;;;;;;;44.55;36.00;;;435.60;2355.20;;;;;;5101450;28;20020;-83
2023/05/16 06:43:25;;;;;;;47.60;37.88;;;435.70;2355.20;;;;;;5101196;28;20023;-81
2023/05/16 06:45:51;;;;;;;42.40;34.05;;;435.80;2048.00;;;;;;5100978;28;20031;-82
2023/05/16 06:48:17;;;;;;;40.72;31.80;;;435.60;2355.20;;;;;;5101391;28;20031;-82
2023/05/16 06:50:47;;;;;;;37.15;28.40;;;435.60;2355.20;;;;;;5101467;28;20062;-84
2023/05/16 06:53:13;;;;;;;40.45;27.98;;;435.60;2355.20;;;;;;5100245;28;20031;-82
2023/05/16 06:55:39;;;;;;;37.47;28.88;;;435.60;2355.20;;;;;;5100884;28;20034;-81
2023/05/16 06:58:05;;;;;;;38.80;30.73;;;435.60;2355.20;;;;;;5099887;28;20031;-84
2023/05/16 07:00:31;;;;;;;39.40;31.23;;;435.70;2355.20;;;;;;5100292;28;20020;-82
2023/05/16 07:02:56;;;;;;;38.30;32.42;;;435.70;2355.20;;;;;;5101486;28;20023;-83
2023/05/16 07:05:22;;;;;;;40.88;31.20;;;435.80;2355.20;;;;;;5100202;28;20028;-81
2023/05/16 07:07:48;;;;;;;42.60;33.63;;;435.80;2355.20;;;;;;5100477;28;20020;-82
2023/05/16 07:10:14;;;;;;;41.33;33.67;;;435.80;2355.20;;;;;;5099052;28;20019;-82
2023/05/16 07:12:42;;;;;;;53.97;37.70;;;435.80;2355.20;;;;;;5099944;28;20081;-82
2023/05/16 07:15:08;;;;;;;47.05;38.97;;;435.80;2355.20;;;;;;5099679;28;20421;-81
2023/05/16 07:17:34;;;;;;;41.78;35.08;;;435.80;2355.20;;;;;;5103748;28;20088;-82
2023/05/16 07:20:00;;;;;;;36.22;32.25;;;435.80;2355.20;;;;;;5104552;28;20066;-83
2023/05/16 07:22:26;;;;;;;38.10;31.70;;;435.80;2355.20;;;;;;5104526;28;20055;-82
2023/05/16 07:24:55;;;;;;;36.30;30.13;;;435.80;2355.20;;;;;;5103924;28;20024;-80
2023/05/16 07:27:22;;;;;;;38.88;31.50;;;435.90;2355.20;;;;;;5089081;28;20028;-83
2023/05/16 07:29:47;;;;;;;50.50;32.08;;;435.90;2355.20;;;;;;5083497;28;20049;-82
2023/05/16 07:32:13;;;;;;;39.42;29.27;;;435.90;2355.20;;;;;;5095283;28;20068;-81
2023/05/16 07:34:39;;;;;;;37.65;26.35;;;435.90;2355.20;;;;;;5104754;28;20028;-84
2023/05/16 07:37:11;;;;;;;32.35;23.48;;;436.00;2355.20;;;;;;5103160;28;20029;-82
2023/05/16 07:39:38;;;;;;;23.33;20.30;;;436.10;2355.20;;;;;;5105137;28;20071;-81
2023/05/16 07:42:06;;;;;;;27.42;19.70;;;436.10;2355.20;;;;;;5104168;28;20030;-82
2023/05/16 07:44:32;;;;;;;32.45;19.65;;;461.30;2380.80;;;;;;5105125;28;20031;-81
2023/05/16 07:46:58;;;;;;;32.70;20.75;;;436.10;2355.20;;;;;;5104409;28;20023;-81
2023/05/16 07:49:23;;;;;;;25.60;19.98;;;435.80;2355.20;;;;;;5105805;28;20462;-82
2023/05/16 07:51:49;;;;;;;30.20;19.30;;;436.10;2355.20;;;;;;5102794;28;20020;-83
2023/05/16 07:54:15;;;;;;;27.77;19.45;;;460.80;2380.80;;;;;;5104347;28;20024;-83
2023/05/16 07:56:41;;;;;;;20.83;16.75;;;436.10;2355.20;;;;;;5100823;28;20046;-85
2023/05/16 07:59:07;;;;;;;28.25;19.55;;;436.10;2355.20;;;;;;5099155;28;20039;-83
2023/05/16 08:01:33;;;;;;;28.90;19.35;;;436.00;2355.20;;;;;;5096163;28;20034;-80
2023/05/16 08:03:58;;;;;;;26.23;19.33;;;436.00;2355.20;;;;;;5103745;28;20055;-81
2023/05/16 08:06:24;;;;;;;25.15;18.40;;;436.00;2355.20;;;;;;5099448;28;20092;-80
2023/05/16 08:08:50;;;;;;;30.63;18.90;;;436.10;2355.20;;;;;;5083194;28;20475;-82
2023/05/16 08:11:17;;;;;;;24.85;18.02;;;460.80;2380.80;;;;;;5091405;28;20053;-82
2023/05/16 08:13:43;;;;;;;24.30;19.90;;;460.80;2380.80;;;;;;5103561;28;20096;-81
2023/05/16 08:16:10;;;;;;;25.70;20.15;;;460.80;2380.80;;;;;;5103291;28;20059;-83
2023/05/16 08:18:36;;;;;;;26.42;19.55;;;460.90;2380.80;;;;;;5104960;28;20031;-84
2023/05/16 08:21:02;;;;;;;24.65;20.60;;;460.90;2380.80;;;;;;5102843;28;20042;-81
2023/05/16 08:23:28;;;;;;;32.10;21.45;;;460.90;2380.80;;;;;;5104039;28;20114;-81
2023/05/16 08:25:54;;;;;;;29.67;20.55;;;461.00;2380.80;;;;;;5102167;28;20034;-81
2023/05/16 08:28:20;;;;;;;27.52;21.10;;;461.00;2380.80;;;;;;5103491;28;20028;-81
2023/05/16 08:30:46;;;;;;;33.08;22.50;;;461.00;2380.80;;;;;;5102366;28;20114;-83
2023/05/16 08:33:12;;;;;;;33.65;23.35;;;461.10;2380.80;;;;;;5103611;28;20031;-81
2023/05/16 08:35:42;;;;;;;44.55;27.73;;;461.10;2380.80;;;;;;5101736;28;20024;-81
2023/05/16 08:38:08;;;;;;;35.22;25.52;;;461.10;2380.80;;;;;;5100228;28;20096;-86
2023/05/16 08:40:34;;;;;;;37.00;23.00;;;461.00;2380.80;;;;;;5082103;28;20016;-84
2023/05/16 08:43:01;;;;;;;41.58;26.08;;;461.00;2380.80;;;;;;5082512;28;20051;-82
2023/05/16 08:45:27;;;;;;;33.42;24.65;;;461.10;2380.80;;;;;;5081699;28;20028;-83
2023/05/16 08:47:59;;;;;;;36.72;27.00;;;461.10;2380.80;;;;;;5084460;28;20021;-82
2023/05/16 08:50:28;;;;;;;40.00;26.08;;;461.20;2380.80;;;;;;5084174;28;20050;-83
2023/05/16 08:52:54;;;;;;;30.08;22.63;;;461.20;2380.80;;;;;;5082966;28;20031;-82
2023/05/16 08:55:22;;;;;;;32.08;23.35;;;461.20;2380.80;;;;;;5082392;28;20020;-82
2023/05/16 08:57:50;;;;;;;31.25;23.50;;;461.30;2380.80;;;;;;5083557;28;20024;-81
2023/05/16 09:00:18;;;;;;;27.17;20.65;;;461.40;2380.80;;;;;;5082548;28;20025;-82
2023/05/16 09:02:45;;;;;;;29.88;21.45;;;461.40;2380.80;;;;;;5076921;28;20017;-83
2023/05/16 09:05:12;;;;;;;31.17;21.85;;;436.00;2355.20;;;;;;5055249;28;20027;-83
2023/05/16 09:07:39;;;;;;;29.50;23.33;;;461.50;2380.80;;;;;;5081260;28;20475;-84
2023/05/16 09:10:08;;;;;;;32.80;23.05;;;487.20;2380.80;;;;;;5083040;28;20042;-84
2023/05/16 09:12:35;;;;;;;33.47;22.70;;;486.80;2380.80;;;;;;5084692;28;20110;-85
2023/05/16 09:15:06;;;;;;;26.50;20.33;;;461.70;2380.80;;;;;;5085324;28;20024;-83
2023/05/16 09:17:39;;;;;;;28.70;21.33;;;461.70;2380.80;;;;;;5083155;28;20035;-84
2023/05/16 09:20:23;;;;;;;32.45;24.20;;;461.70;2380.80;;;;;;5079592;28;20032;-82
2023/05/16 09:22:53;;;;;;;33.40;24.13;;;486.40;2380.80;;;;;;5066065;28;20028;-84
2023/05/16 09:25:20;;;;;;;29.42;22.30;;;486.50;2380.80;;;;;;5074582;28;20027;-81
2023/05/16 09:27:47;;;;;;;37.00;23.15;;;486.50;2380.80;;;;;;5085255;28;20020;-87
2023/05/16 09:30:20;;;;;;;34.60;24.42;;;486.40;2380.80;;;;;;5091628;28;20062;-90
2023/05/16 09:33:31;;;;;;;33.70;23.85;;;486.50;2380.80;;;;;;5093507;28;20095;-89
2023/05/16 09:36:56;;;;;;;33.28;23.20;;;486.60;2380.80;;;;;;5022224;28;20115;-90
2023/05/16 09:39:29;;;;;;;34.90;22.88;;;486.70;2380.80;;;;;;5033775;28;20210;-89
2023/05/16 09:41:57;;;;;;;29.42;20.15;;;486.90;2380.80;;;;;;5037704;28;20050;-88
2023/05/16 09:44:23;;;;;;;26.15;19.63;;;487.00;2380.80;;;;;;5029167;28;20045;-86
2023/05/16 09:46:49;;;;;;;23.48;17.60;;;487.10;2380.80;;;;;;5041848;28;20029;-87
2023/05/16 09:49:18;;;;;;;24.77;19.30;;;487.20;2380.80;;;;;;5036612;28;20033;-89
2023/05/16 09:51:46;;;;;;;28.23;19.50;;;487.30;2380.80;;;;;;5052817;28;20026;-89
2023/05/16 09:54:14;;;;;;;26.58;20.15;;;512.10;2380.80;;;;;;5036615;28;20029;-88
2023/05/16 09:56:50;;;;;;;27.83;19.98;;;512.40;2380.80;;;;;;5034898;28;20021;-91
2023/05/16 09:59:16;;;;;;;29.10;16.98;;;512.40;2380.80;;;;;;5021023;28;20034;-90
2023/05/16 10:01:53;;;;;;;25.02;18.60;;;512.50;2380.80;;;;;;5254952;22;20532;-87
2023/05/16 10:04:26;;;;;;;28.80;19.30;;;512.90;2380.80;;;;;;5137334;28;20048;-88
2023/05/16 10:10:59;;;;;;;31.95;20.13;;;537.80;2406.40;;;;;;5056575;28;20076;-89
2023/05/16 10:13:37;;;;;;;23.17;12.98;;;537.90;2406.40;;;;;;5040063;28;20029;-90
2023/05/16 10:16:45;;;;;;;16.15;10.05;;;538.00;2406.40;;;;;;5002746;28;20033;-86
2023/05/16 10:20:03;;;;;;;17.65;9.25;;;538.10;2406.40;;;;;;5056544;28;20052;-89
2023/05/16 10:47:15;;;;;;;15.32;10.25;;;538.10;2406.40;;;;;;4957822;29;20071;-88
2023/05/16 10:50:48;;;;;;;15.63;10.43;;;538.30;2406.40;;;;;;4919475;29;20019;-89
2023/05/16 11:04:26;;;;;;;18.42;7.53;;;589.40;2432.00;;;;;;4875653;29;20068;-88
2023/05/16 11:07:50;;;;;;;14.48;7.38;;;614.50;2432.00;;;;;;4881864;29;20051;-89
2023/05/16 11:11:36;;;;;;;16.35;7.95;;;614.80;2432.00;;;;;;4895976;29;20066;-88
2023/05/16 11:15:25;;;;;;;13.95;5.80;;;640.00;2432.00;;;;;;4860388;29;20120;-89
2023/05/16 11:19:08;;;;;;;13.48;5.80;;;615.30;2432.00;;;;;;4841953;29;20038;-88
2023/05/16 11:22:41;;;;;;;17.98;5.97;;;615.30;2432.00;;;;;;4857213;29;20097;-88
2023/05/16 11:26:07;;;;;;;11.07;7.28;;;615.30;2432.00;;;;;;4889274;29;20065;-88
2023/05/16 11:32:55;;;;;;;11.27;5.38;;;614.80;2432.00;;;;;;4833935;29;20059;-89
2023/05/16 11:36:22;;;;;;;15.65;5.72;;;614.40;2432.00;;;;;;4823135;29;20035;-88
2023/05/16 11:39:18;;;;;;;18.88;5.40;;;589.60;2432.00;;;;;;4840271;29;20027;-88
2023/05/16 11:42:03;;;;;;;18.88;6.30;;;589.50;2432.00;;;;;;4822132;29;20039;-88
2023/05/16 11:45:13;;;;;;;16.50;5.43;;;589.40;2432.00;;;;;;4807342;30;20048;-87
2023/05/16 11:49:03;;;;;;;23.17;6.15;;;589.30;2432.00;;;;;;4807202;30;20120;-88
2023/05/16 11:52:45;;;;;;;20.60;6.55;;;589.10;2432.00;;;;;;4846338;29;20006;-89
2023/05/16 12:09:36;;;;;;;19.15;11.43;;;563.60;2432.00;;;;;;5274199;22;20057;-91
2023/05/16 12:13:20;;;;;;;18.40;9.68;;;563.50;2432.00;;;;;;4933304;29;20050;-89
2023/05/16 12:20:24;;;;;;;13.00;6.18;;;538.30;2406.40;;;;;;4757161;30;20075;-87
2023/05/16 12:24:03;;;;;;;14.40;6.03;;;538.10;2406.40;;;;;;4756695;30;20118;-88
2023/05/16 12:36:38;;;;;;;17.15;6.25;;;537.70;2406.40;;;;;;5093246;28;20098;-88
2023/05/16 12:40:30;;;;;;;9.77;5.85;;;537.80;2406.40;;;;;;5076571;28;20059;-88
2023/05/16 12:50:27;;;;;;;16.02;6.10;;;537.90;2406.40;;;;;;4997789;28;20041;-87
2023/05/16 12:56:31;;;;;;;15.02;7.90;;;537.90;2406.40;;;;;;4983673;28;20038;-86
2023/05/16 12:59:37;;;;;;;14.40;8.23;;;537.90;2406.40;;;;;;4980682;28;20066;-86
2023/05/16 13:03:18;;;;;;;21.88;10.27;;;537.90;2406.40;;;;;;4917454;29;20048;-89
2023/05/16 13:06:28;;;;;;;19.73;11.43;;;538.00;2406.40;;;;;;4864951;29;20095;-84
2023/05/16 13:09:02;;;;;;;10.30;6.00;;;538.10;2406.40;;;;;;4823624;29;20614;-87
2023/05/16 13:11:29;;;;;;;13.23;7.90;;;538.20;2406.40;;;;;;4810430;29;20046;-84
2023/05/16 13:13:57;;;;;;;13.45;6.20;;;538.50;2406.40;;;;;;4809887;29;20035;-84
2023/05/16 13:16:24;;;;;;;14.38;6.20;;;538.50;2406.40;;;;;;4830594;29;20046;-83
2023/05/16 13:19:00;;;;;;;11.88;5.55;;;538.50;2406.40;;;;;;4809765;29;20046;-86
2023/05/16 13:21:31;;;;;;;12.20;6.57;;;563.20;2432.00;;;;;;4807558;29;20031;-84
2023/05/16 13:24:01;;;;;;;17.88;6.65;;;563.20;2432.00;;;;;;4809813;29;20031;-83
2023/05/16 13:26:39;;;;;;;14.45;7.47;;;563.20;2432.00;;;;;;4823621;29;20050;-84
2023/05/16 13:29:08;;;;;;;15.63;6.88;;;538.50;2406.40;;;;;;4810115;29;20098;-82
2023/05/16 13:31:35;;;;;;;14.75;7.43;;;563.20;2432.00;;;;;;4807917;29;20075;-84
2023/05/16 13:34:02;;;;;;;14.30;6.60;;;563.40;2432.00;;;;;;4809032;29;20077;-85
2023/05/16 13:36:28;;;;;;;15.88;6.95;;;563.30;2432.00;;;;;;4817554;29;20044;-83
2023/05/16 13:39:00;;;;;;;18.85;8.43;;;563.40;2432.00;;;;;;4950737;28;20035;-85
2023/05/16 13:41:28;;;;;;;17.27;10.00;;;563.60;2432.00;;;;;;4977904;28;20054;-84
2023/05/16 13:43:59;;;;;;;14.48;8.50;;;563.70;2432.00;;;;;;4960985;28;20039;-85
2023/05/16 14:03:39;;;;;;;19.95;10.00;;;564.10;2432.00;;;;;;4864667;29;20097;-84
2023/05/16 14:06:32;;;;;;;16.60;7.80;;;563.90;2432.00;;;;;;4865051;29;20101;-84